Time;durP1;ratioP1;P1;durP2;ratioP2;P2;SDS_P1;SDS_P2;PMS_P1;PMS_P2;Temp;Humidity;BMP_temperature;BMP_pressure;BME280_temperature;BME280_humidity;BME280_pressure;Samples;Min_cycle;Max_cycle;Signal;HPM_P1;HPM_P2
2023/10/19 00:00:39;;;;;;;38.57;26.27;;;6.80;54.90;;;;;;5011458;28;20195;-88
2023/10/19 00:03:08;;;;;;;38.03;27.67;;;6.80;55.00;;;;;;5000907;28;20664;-86
2023/10/19 00:05:34;;;;;;;36.53;26.97;;;6.90;55.10;;;;;;5000447;28;20198;-87
2023/10/19 00:08:05;;;;;;;39.53;26.57;;;6.70;54.80;;;;;;4995682;28;20183;-87
2023/10/19 00:10:35;;;;;;;35.47;25.53;;;6.80;54.90;;;;;;4993608;28;20766;-87
2023/10/19 00:13:05;;;;;;;41.47;28.70;;;6.70;54.70;;;;;;4996737;28;20233;-87
2023/10/19 00:15:37;;;;;;;40.57;26.57;;;6.70;54.70;;;;;;4994048;28;20179;-88
2023/10/19 00:18:20;;;;;;;38.60;27.50;;;6.60;54.80;;;;;;4994030;28;20203;-87
2023/10/19 00:20:54;;;;;;;43.57;29.67;;;6.60;55.00;;;;;;5002317;28;20195;-87
2023/10/19 00:23:32;;;;;;;47.67;30.87;;;6.60;54.90;;;;;;4997167;28;20199;-87
2023/10/19 00:25:59;;;;;;;44.80;28.93;;;6.60;54.80;;;;;;4995817;28;20187;-87
2023/10/19 00:28:27;;;;;;;42.20;28.53;;;6.60;54.80;;;;;;4997601;28;20591;-87
2023/10/19 00:30:59;;;;;;;42.23;28.43;;;6.50;54.90;;;;;;5005117;28;20214;-86
2023/10/19 00:33:28;;;;;;;40.47;27.83;;;6.70;55.10;;;;;;5002210;28;20171;-87
2023/10/19 00:35:58;;;;;;;46.40;29.87;;;6.70;55.10;;;;;;4995778;28;20211;-88
2023/10/19 00:38:27;;;;;;;42.53;28.47;;;6.60;55.30;;;;;;4996795;28;20564;-88
2023/10/19 00:41:06;;;;;;;40.37;29.23;;;6.50;55.20;;;;;;4999128;28;20679;-87
2023/10/19 00:43:45;;;;;;;40.90;29.50;;;6.50;55.20;;;;;;4995537;28;20645;-88
2023/10/19 00:48:58;;;;;;;42.53;28.33;;;6.50;55.20;;;;;;5004332;28;20245;-88
2023/10/19 00:54:10;;;;;;;40.90;27.87;;;6.50;55.30;;;;;;5000044;28;20724;-88
2023/10/19 00:56:38;;;;;;;46.27;30.57;;;6.50;55.50;;;;;;5017146;28;20216;-88
2023/10/19 00:59:14;;;;;;;44.53;30.17;;;6.50;55.50;;;;;;5004318;28;20207;-88
2023/10/19 01:01:44;;;;;;;42.53;29.47;;;6.70;55.60;;;;;;5008248;28;20178;-89
2023/10/19 01:04:14;;;;;;;43.57;31.83;;;6.60;55.40;;;;;;5008240;28;20197;-88
2023/10/19 01:07:00;;;;;;;46.73;30.97;;;6.60;55.40;;;;;;5021092;28;20187;-89
2023/10/19 01:09:27;;;;;;;45.07;29.47;;;6.50;55.20;;;;;;5003904;28;20275;-89
2023/10/19 01:11:53;;;;;;;44.90;30.53;;;6.50;55.40;;;;;;5015322;28;20207;-88
2023/10/19 01:14:27;;;;;;;46.90;32.23;;;6.40;55.60;;;;;;5017712;28;20634;-88
2023/10/19 01:16:56;;;;;;;49.50;32.07;;;6.40;55.80;;;;;;5013586;28;20241;-89
2023/10/19 01:19:23;;;;;;;52.70;33.17;;;6.40;55.70;;;;;;5005510;28;20234;-87
2023/10/19 01:25:16;;;;;;;48.67;32.60;;;6.40;55.70;;;;;;4986711;28;20244;-89
2023/10/19 01:27:42;;;;;;;48.30;33.30;;;6.40;55.80;;;;;;4999916;28;20267;-89
2023/10/19 01:30:09;;;;;;;48.10;31.23;;;6.50;55.90;;;;;;5017375;28;20322;-88
2023/10/19 01:32:35;;;;;;;48.43;32.13;;;6.50;55.80;;;;;;4998361;28;20192;-89
2023/10/19 01:35:01;;;;;;;47.13;32.53;;;6.50;55.80;;;;;;5004360;28;20187;-89
2023/10/19 01:37:26;;;;;;;43.97;31.83;;;6.60;55.70;;;;;;5003512;28;20184;-90
2023/10/19 01:39:52;;;;;;;46.33;30.83;;;6.60;55.50;;;;;;5001271;28;20226;-89
2023/10/19 01:42:17;;;;;;;54.13;33.43;;;6.60;55.40;;;;;;4997610;28;20603;-89
2023/10/19 01:44:43;;;;;;;48.77;31.50;;;6.70;55.50;;;;;;5012213;28;20236;-89
2023/10/19 01:47:09;;;;;;;42.70;30.00;;;6.70;55.60;;;;;;5001961;28;20190;-89
2023/10/19 01:49:34;;;;;;;48.50;32.70;;;6.60;55.60;;;;;;4997072;28;20183;-89
2023/10/19 01:52:00;;;;;;;47.43;33.37;;;6.80;55.70;;;;;;5000642;28;20190;-88
2023/10/19 01:54:26;;;;;;;46.63;31.90;;;6.70;55.50;;;;;;4997870;28;20191;-86
2023/10/19 01:56:58;;;;;;;49.43;31.10;;;6.60;55.30;;;;;;4999440;28;20263;-89
2023/10/19 01:59:30;;;;;;;55.50;34.73;;;6.60;55.30;;;;;;4999105;28;20326;-89
2023/10/19 02:01:57;;;;;;;54.73;35.53;;;6.60;55.30;;;;;;5000531;28;20182;-88
2023/10/19 02:04:23;;;;;;;50.27;35.93;;;6.60;55.30;;;;;;5013803;28;20195;-88
2023/10/19 02:06:51;;;;;;;55.97;35.17;;;6.60;55.50;;;;;;5002768;28;20195;-89
2023/10/19 02:09:21;;;;;;;54.40;38.30;;;6.60;55.40;;;;;;5001878;28;20195;-89
2023/10/19 02:11:48;;;;;;;56.33;38.40;;;6.50;55.30;;;;;;4995706;28;20218;-89
2023/10/19 02:14:18;;;;;;;51.93;36.93;;;6.70;55.50;;;;;;5001276;28;20199;-89
2023/10/19 02:16:52;;;;;;;53.27;36.53;;;6.50;55.30;;;;;;5002506;28;20233;-88
2023/10/19 02:19:19;;;;;;;55.23;37.67;;;6.50;55.40;;;;;;5013278;28;20186;-89
2023/10/19 02:21:48;;;;;;;54.93;38.23;;;6.50;55.50;;;;;;4998681;28;20647;-88
2023/10/19 02:24:14;;;;;;;57.90;39.40;;;6.50;55.60;;;;;;4999241;28;20203;-89
2023/10/19 02:26:43;;;;;;;60.33;41.33;;;6.50;55.50;;;;;;5014301;28;20318;-90
2023/10/19 02:29:09;;;;;;;57.80;39.40;;;6.50;55.50;;;;;;4997751;28;20653;-89
2023/10/19 02:31:40;;;;;;;62.27;39.53;;;6.50;55.30;;;;;;4992522;28;20227;-89
2023/10/19 02:34:09;;;;;;;60.80;40.73;;;6.40;55.20;;;;;;4995864;28;20225;-89
2023/10/19 02:36:36;;;;;;;62.97;42.23;;;6.60;55.50;;;;;;4999524;28;20790;-89
2023/10/19 02:39:07;;;;;;;60.33;42.73;;;6.40;55.40;;;;;;5004143;28;20180;-88
2023/10/19 02:41:37;;;;;;;61.90;41.37;;;6.40;55.40;;;;;;5005921;28;20187;-89
2023/10/19 02:44:19;;;;;;;57.67;38.80;;;6.30;55.30;;;;;;4997750;28;20238;-89
2023/10/19 02:46:45;;;;;;;63.67;41.53;;;6.30;55.40;;;;;;4998747;28;20580;-89
2023/10/19 02:49:22;;;;;;;57.30;39.40;;;6.30;55.60;;;;;;5004675;28;20187;-88
2023/10/19 02:51:50;;;;;;;62.03;42.27;;;6.30;55.60;;;;;;4995606;28;20679;-89
2023/10/19 02:54:24;;;;;;;65.20;42.17;;;6.40;55.60;;;;;;4993558;28;20533;-89
2023/10/19 02:56:53;;;;;;;57.10;40.17;;;6.40;55.60;;;;;;5001108;28;20187;-89
2023/10/19 02:59:23;;;;;;;64.90;43.17;;;6.20;55.40;;;;;;4999133;28;20191;-86
2023/10/19 03:04:37;;;;;;;55.67;40.93;;;6.20;55.70;;;;;;5000523;28;20252;-88
2023/10/19 03:07:04;;;;;;;61.00;41.63;;;6.20;55.60;;;;;;5004667;28;20180;-87
2023/10/19 03:09:30;;;;;;;62.73;42.80;;;6.20;55.40;;;;;;4997377;28;20184;-87
2023/10/19 03:11:59;;;;;;;63.27;43.07;;;6.40;55.70;;;;;;4998622;28;20290;-87
2023/10/19 03:14:25;;;;;;;67.07;44.87;;;6.20;55.70;;;;;;4998805;28;20207;-87
2023/10/19 03:16:52;;;;;;;69.67;45.80;;;6.20;55.90;;;;;;4996923;28;20416;-88
2023/10/19 03:19:18;;;;;;;66.30;45.33;;;6.20;55.80;;;;;;5000497;28;20779;-88
2023/10/19 03:21:43;;;;;;;71.93;47.03;;;6.20;55.70;;;;;;4999814;28;20191;-86
2023/10/19 03:24:13;;;;;;;66.27;45.97;;;6.20;55.70;;;;;;4996348;28;20334;-87
2023/10/19 03:26:49;;;;;;;77.67;48.83;;;6.30;55.70;;;;;;5016894;28;20187;-87
2023/10/19 03:29:15;;;;;;;74.07;46.17;;;6.50;56.00;;;;;;4994922;28;20198;-88
2023/10/19 03:31:45;;;;;;;70.60;49.20;;;6.40;55.80;;;;;;4998303;28;20302;-88
2023/10/19 03:34:12;;;;;;;69.67;48.37;;;6.50;55.60;;;;;;4995943;28;20195;-88
2023/10/19 03:36:39;;;;;;;69.53;48.20;;;6.30;55.60;;;;;;5004075;28;20209;-88
2023/10/19 03:39:11;;;;;;;69.50;45.53;;;6.30;55.70;;;;;;4994585;28;20187;-88
2023/10/19 03:41:39;;;;;;;74.93;48.77;;;6.20;55.80;;;;;;5001756;28;20202;-88
2023/10/19 03:44:07;;;;;;;69.77;47.40;;;6.20;55.90;;;;;;5001173;28;20222;-88
2023/10/19 03:46:37;;;;;;;72.90;49.63;;;6.20;55.90;;;;;;4998873;28;20265;-88
2023/10/19 03:49:10;;;;;;;71.80;49.73;;;6.20;56.00;;;;;;4997998;28;20218;-87
2023/10/19 03:51:40;;;;;;;69.70;48.63;;;6.20;56.00;;;;;;4997008;28;20286;-87
2023/10/19 03:54:24;;;;;;;75.10;50.13;;;6.30;56.20;;;;;;4998097;28;20220;-87
2023/10/19 03:56:50;;;;;;;67.40;47.80;;;6.30;56.30;;;;;;4995267;28;20190;-87
2023/10/19 03:59:17;;;;;;;75.47;51.20;;;6.50;56.50;;;;;;4995272;28;20196;-87
2023/10/19 04:02:07;;;;;;;71.37;48.97;;;6.40;56.30;;;;;;4989203;28;20191;-88
2023/10/19 04:04:33;;;;;;;73.47;51.23;;;6.50;56.20;;;;;;4997165;28;20697;-88
2023/10/19 04:06:59;;;;;;;74.07;52.00;;;6.50;56.20;;;;;;4996972;28;20222;-89
2023/10/19 04:09:29;;;;;;;71.33;48.53;;;6.40;56.10;;;;;;4996307;28;20218;-87
2023/10/19 04:11:56;;;;;;;66.67;48.13;;;6.40;56.20;;;;;;4994721;28;20284;-89
2023/10/19 04:14:21;;;;;;;68.33;49.80;;;6.60;56.40;;;;;;4992977;28;20874;-88
2023/10/19 04:16:48;;;;;;;66.70;47.17;;;6.40;56.20;;;;;;4992862;28;21277;-88
2023/10/19 04:19:15;;;;;;;68.37;47.77;;;6.40;56.30;;;;;;4997312;28;20191;-88
2023/10/19 04:21:46;;;;;;;65.63;47.33;;;6.50;56.50;;;;;;5013508;28;20187;-88
2023/10/19 04:24:13;;;;;;;70.97;47.53;;;6.50;56.40;;;;;;5001829;28;20187;-88
2023/10/19 04:26:39;;;;;;;77.27;51.73;;;6.60;56.40;;;;;;5000304;28;20187;-88
2023/10/19 04:29:11;;;;;;;71.63;50.57;;;6.40;56.20;;;;;;5002479;28;20202;-88
2023/10/19 04:31:48;;;;;;;73.03;49.40;;;6.40;56.30;;;;;;5002453;28;20679;-88
2023/10/19 04:34:14;;;;;;;67.77;48.93;;;6.50;56.50;;;;;;4998288;28;21023;-90
2023/10/19 04:36:40;;;;;;;66.53;46.23;;;6.30;56.40;;;;;;5006106;28;20199;-90
2023/10/19 04:39:11;;;;;;;68.20;48.83;;;6.30;56.60;;;;;;5005712;28;20199;-90
2023/10/19 04:41:37;;;;;;;63.90;45.63;;;6.60;56.80;;;;;;5004587;28;20195;-90
2023/10/19 04:44:02;;;;;;;70.37;46.10;;;6.40;56.60;;;;;;5007049;28;20241;-90
2023/10/19 04:46:29;;;;;;;68.77;47.00;;;6.40;56.50;;;;;;5010150;28;20183;-90
2023/10/19 04:48:54;;;;;;;68.93;46.90;;;6.40;56.40;;;;;;5009086;28;20183;-90
2023/10/19 04:51:20;;;;;;;69.07;47.03;;;6.40;56.40;;;;;;5010130;28;20230;-90
2023/10/19 04:53:46;;;;;;;63.80;45.03;;;6.40;56.40;;;;;;5019619;28;20198;-91
2023/10/19 04:56:12;;;;;;;70.77;47.17;;;6.40;56.50;;;;;;5006467;28;20192;-91
2023/10/19 04:58:38;;;;;;;69.83;48.83;;;6.40;56.50;;;;;;5004323;28;20198;-90
2023/10/19 05:01:05;;;;;;;67.97;47.37;;;6.60;56.80;;;;;;5001522;28;20286;-90
2023/10/19 05:03:31;;;;;;;77.27;49.90;;;6.60;56.80;;;;;;5006318;28;20187;-89
2023/10/19 05:05:56;;;;;;;71.90;49.40;;;6.50;56.70;;;;;;5002409;28;20194;-89
2023/10/19 05:08:25;;;;;;;66.83;46.83;;;6.50;56.60;;;;;;5006201;28;20195;-88
2023/10/19 05:10:52;;;;;;;63.20;46.17;;;6.50;56.60;;;;;;5010008;28;20788;-90
2023/10/19 05:13:19;;;;;;;63.70;45.63;;;6.50;56.50;;;;;;5011030;28;20211;-89
2023/10/19 05:15:44;;;;;;;74.13;50.33;;;6.60;56.60;;;;;;5007389;28;20191;-90
2023/10/19 05:18:10;;;;;;;67.50;46.27;;;6.50;56.60;;;;;;5010450;28;20318;-89
2023/10/19 05:20:40;;;;;;;68.90;49.63;;;6.50;56.60;;;;;;5010152;28;20290;-90
2023/10/19 05:23:09;;;;;;;71.10;48.03;;;6.60;56.70;;;;;;5000557;28;20184;-90
2023/10/19 05:25:36;;;;;;;71.23;48.03;;;6.50;56.60;;;;;;5008250;28;20194;-88
2023/10/19 05:28:04;;;;;;;64.30;45.77;;;6.50;56.80;;;;;;5003101;28;20195;-88
2023/10/19 05:30:29;;;;;;;68.00;46.80;;;6.40;56.80;;;;;;5002881;28;21401;-88
2023/10/19 05:32:55;;;;;;;66.87;46.27;;;6.60;57.10;;;;;;5004669;28;20203;-89
2023/10/19 05:35:23;;;;;;;67.40;46.07;;;6.50;57.00;;;;;;5001951;28;20187;-88
2023/10/19 05:37:49;;;;;;;66.67;46.17;;;6.70;57.20;;;;;;5000400;28;20194;-88
2023/10/19 05:40:15;;;;;;;59.93;42.40;;;6.80;57.00;;;;;;5001097;28;20188;-88
2023/10/19 05:42:41;;;;;;;65.30;44.87;;;6.70;56.90;;;;;;4998395;28;20276;-88
2023/10/19 05:45:07;;;;;;;63.87;43.97;;;6.70;56.80;;;;;;5002891;28;20280;-87
2023/10/19 05:47:32;;;;;;;62.43;43.80;;;6.80;57.00;;;;;;4999288;28;20180;-88
2023/10/19 05:49:58;;;;;;;68.23;46.03;;;6.80;56.90;;;;;;4996754;28;20254;-87
2023/10/19 05:52:24;;;;;;;64.03;46.13;;;6.80;56.80;;;;;;5002499;28;20191;-90
2023/10/19 05:54:49;;;;;;;64.80;45.80;;;6.80;56.80;;;;;;5000301;28;20450;-87
2023/10/19 05:57:15;;;;;;;66.83;47.10;;;6.80;56.90;;;;;;4997319;28;20191;-88
2023/10/19 05:59:41;;;;;;;65.07;44.63;;;6.80;56.90;;;;;;4997404;28;20191;-89
2023/10/19 06:02:07;;;;;;;61.90;41.30;;;7.00;57.00;;;;;;4993549;28;20192;-87
2023/10/19 06:04:33;;;;;;;52.93;39.80;;;6.80;56.90;;;;;;4996720;28;20179;-88
2023/10/19 06:06:59;;;;;;;58.67;38.57;;;6.80;57.30;;;;;;5006132;28;20649;-87
2023/10/19 06:09:29;;;;;;;59.23;42.73;;;7.00;57.60;;;;;;5000286;28;20298;-89
2023/10/19 06:11:55;;;;;;;59.23;40.40;;;6.90;57.70;;;;;;4997977;28;20225;-87
2023/10/19 06:14:20;;;;;;;56.60;39.47;;;6.80;57.80;;;;;;5001078;28;20191;-88
2023/10/19 06:16:46;;;;;;;57.10;39.93;;;7.00;58.00;;;;;;5001761;28;20371;-89
2023/10/19 06:19:12;;;;;;;57.27;40.07;;;7.00;57.90;;;;;;4999175;28;20254;-86
2023/10/19 06:21:37;;;;;;;61.20;42.97;;;7.10;57.60;;;;;;4995686;28;20202;-89
2023/10/19 06:24:03;;;;;;;61.10;44.00;;;7.30;57.60;;;;;;4998950;28;20192;-89
2023/10/19 06:26:29;;;;;;;52.80;38.13;;;7.20;57.40;;;;;;5005568;28;20187;-89
2023/10/19 06:29:02;;;;;;;57.03;39.47;;;7.20;57.50;;;;;;5003339;28;20269;-88
2023/10/19 06:31:28;;;;;;;55.33;38.13;;;7.20;57.70;;;;;;5000476;28;20660;-89
2023/10/19 06:33:53;;;;;;;56.43;40.73;;;7.40;57.80;;;;;;5001605;28;20186;-87
2023/10/19 06:36:19;;;;;;;58.60;40.67;;;7.30;57.80;;;;;;5000200;28;20176;-88
2023/10/19 06:38:46;;;;;;;58.67;40.97;;;7.40;57.90;;;;;;4999812;28;20859;-88
2023/10/19 06:41:12;;;;;;;62.27;41.10;;;7.50;58.00;;;;;;4996696;28;20219;-88
2023/10/19 06:43:41;;;;;;;54.33;39.73;;;7.70;57.90;;;;;;4994507;28;20680;-88
2023/10/19 06:46:11;;;;;;;56.00;40.37;;;7.80;57.80;;;;;;5000627;28;20191;-87
2023/10/19 06:48:37;;;;;;;51.90;37.20;;;7.90;57.80;;;;;;4994622;28;20548;-89
2023/10/19 06:51:02;;;;;;;49.60;35.97;;;8.00;57.80;;;;;;4998651;28;20214;-89
2023/10/19 06:53:28;;;;;;;56.50;36.70;;;7.80;57.80;;;;;;4993351;28;20195;-89
2023/10/19 06:55:54;;;;;;;49.87;35.10;;;7.90;58.00;;;;;;5000660;28;20183;-90
2023/10/19 06:58:21;;;;;;;46.83;35.30;;;7.90;58.10;;;;;;5022998;28;20255;-90
2023/10/19 07:00:56;;;;;;;53.20;36.37;;;8.00;58.90;;;;;;5014944;28;20185;-88
2023/10/19 07:03:22;;;;;;;52.60;35.63;;;8.00;58.30;;;;;;5013814;28;20179;-89
2023/10/19 07:05:49;;;;;;;54.57;38.83;;;8.00;58.50;;;;;;5013792;28;20183;-88
2023/10/19 07:08:15;;;;;;;56.57;39.37;;;8.00;58.70;;;;;;5010581;28;20613;-89
2023/10/19 07:10:41;;;;;;;48.33;36.80;;;8.20;58.80;;;;;;5004448;28;20215;-88
2023/10/19 07:13:06;;;;;;;52.53;35.50;;;8.40;58.60;;;;;;5001361;28;20183;-88
2023/10/19 07:15:32;;;;;;;54.83;37.37;;;8.30;58.40;;;;;;5010521;28;20810;-89
2023/10/19 07:17:58;;;;;;;49.93;36.80;;;8.40;58.50;;;;;;5002417;28;20215;-89
2023/10/19 07:20:28;;;;;;;47.83;34.93;;;8.40;58.50;;;;;;5002971;28;20237;-89
2023/10/19 07:22:55;;;;;;;49.37;35.73;;;8.40;58.60;;;;;;4996422;28;20179;-89
2023/10/19 07:25:25;;;;;;;47.53;33.27;;;8.50;59.00;;;;;;5008243;28;20284;-90
2023/10/19 07:27:52;;;;;;;39.80;31.47;;;8.50;59.00;;;;;;5006383;28;20190;-90
2023/10/19 07:30:25;;;;;;;44.07;33.03;;;8.80;59.40;;;;;;5007581;28;20215;-89
2023/10/19 07:32:54;;;;;;;42.70;31.27;;;8.80;59.20;;;;;;5005146;28;20190;-92
2023/10/19 07:35:22;;;;;;;43.07;31.63;;;8.90;59.30;;;;;;5005250;28;20181;-92
2023/10/19 07:37:49;;;;;;;44.30;30.70;;;8.90;59.20;;;;;;5011158;28;20702;-94
2023/10/19 07:40:17;;;;;;;43.33;30.93;;;9.00;59.30;;;;;;5000192;28;20190;-92
2023/10/19 07:42:43;;;;;;;37.80;29.43;;;9.10;59.50;;;;;;5007953;28;20264;-93
2023/10/19 07:45:11;;;;;;;37.03;28.83;;;9.30;59.60;;;;;;4998363;28;20241;-92
2023/10/19 07:47:41;;;;;;;38.63;27.27;;;9.40;59.30;;;;;;5002241;28;20524;-93
2023/10/19 07:50:17;;;;;;;40.03;29.17;;;9.50;59.30;;;;;;5012267;28;20667;-93
2023/10/19 07:52:43;;;;;;;37.67;27.83;;;9.60;59.30;;;;;;5000768;28;20311;-92
2023/10/19 07:55:10;;;;;;;39.83;28.67;;;9.70;59.30;;;;;;5012308;28;20553;-91
2023/10/19 07:57:36;;;;;;;34.83;27.33;;;9.90;59.20;;;;;;4998114;28;20287;-91
2023/10/19 08:00:03;;;;;;;38.03;27.73;;;10.00;58.50;;;;;;5000866;28;20195;-92
2023/10/19 08:02:30;;;;;;;40.90;27.70;;;10.20;58.30;;;;;;5000446;28;20245;-92
2023/10/19 08:04:56;;;;;;;30.53;25.13;;;10.30;58.30;;;;;;5013498;28;20592;-92
2023/10/19 08:07:22;;;;;;;39.33;27.43;;;10.40;58.00;;;;;;5013852;28;20202;-92
2023/10/19 08:09:48;;;;;;;40.60;26.37;;;10.50;58.00;;;;;;5016186;28;20207;-92
2023/10/19 08:12:13;;;;;;;36.30;26.73;;;10.50;58.00;;;;;;5005666;28;20211;-92
2023/10/19 08:14:40;;;;;;;37.07;26.77;;;10.60;57.90;;;;;;5013478;28;20191;-92
2023/10/19 08:17:08;;;;;;;34.27;26.47;;;10.80;58.00;;;;;;5012923;28;20273;-91
2023/10/19 08:19:35;;;;;;;38.13;26.60;;;10.90;57.80;;;;;;5013532;28;20193;-91
2023/10/19 08:22:01;;;;;;;34.50;27.10;;;11.00;57.70;;;;;;5009542;28;20256;-92
2023/10/19 08:24:30;;;;;;;33.97;24.67;;;11.10;57.40;;;;;;5012022;28;20318;-92
2023/10/19 08:26:56;;;;;;;34.87;26.23;;;11.10;57.10;;;;;;5010074;28;20209;-92
2023/10/19 08:29:23;;;;;;;33.47;25.37;;;11.00;56.90;;;;;;5013580;28;20256;-91
2023/10/19 08:31:49;;;;;;;36.33;26.00;;;11.00;57.30;;;;;;5013455;28;20203;-91
2023/10/19 08:34:15;;;;;;;32.07;24.57;;;11.10;57.40;;;;;;5012136;28;20237;-92
2023/10/19 08:36:42;;;;;;;28.37;23.80;;;11.10;56.90;;;;;;5010892;28;20183;-92
2023/10/19 08:39:11;;;;;;;25.90;21.97;;;11.10;56.90;;;;;;5006768;28;20203;-92
2023/10/19 08:41:39;;;;;;;24.43;18.80;;;11.00;56.90;;;;;;4999555;28;20186;-92
2023/10/19 08:44:17;;;;;;;28.20;20.53;;;11.00;56.80;;;;;;5012758;28;20233;-92
2023/10/19 08:46:47;;;;;;;26.57;20.00;;;11.10;57.00;;;;;;5004087;28;20266;-91
2023/10/19 08:49:14;;;;;;;26.83;21.50;;;11.10;56.60;;;;;;5013201;28;20187;-92
2023/10/19 08:51:45;;;;;;;28.90;20.00;;;11.20;56.80;;;;;;5016727;28;20200;-91
2023/10/19 08:54:15;;;;;;;30.20;19.77;;;11.20;56.40;;;;;;5004457;28;20179;-91
2023/10/19 08:56:42;;;;;;;25.73;18.40;;;11.30;56.40;;;;;;5013187;28;20183;-90
2023/10/19 08:59:10;;;;;;;27.17;19.30;;;11.40;56.10;;;;;;5012743;28;20183;-92
2023/10/19 09:01:37;;;;;;;25.50;19.40;;;11.40;56.00;;;;;;5013262;28;20245;-92
2023/10/19 09:04:05;;;;;;;31.57;20.50;;;11.50;55.70;;;;;;5029160;28;20189;-92
2023/10/19 09:06:41;;;;;;;26.77;19.60;;;11.50;55.50;;;;;;5014532;28;20635;-92
2023/10/19 09:09:16;;;;;;;26.93;20.40;;;11.50;55.60;;;;;;5011410;28;20690;-92
2023/10/19 09:11:46;;;;;;;24.43;17.90;;;11.60;55.80;;;;;;5016738;28;20203;-92
2023/10/19 09:14:13;;;;;;;29.07;18.57;;;11.70;55.80;;;;;;5016514;28;20233;-91
2023/10/19 09:16:55;;;;;;;24.00;18.67;;;11.80;55.80;;;;;;5033376;28;20693;-93
2023/10/19 09:19:36;;;;;;;22.50;16.93;;;11.90;55.30;;;;;;5013474;28;20186;-91
2023/10/19 09:22:07;;;;;;;20.87;16.57;;;12.00;55.10;;;;;;5014065;28;20332;-91
2023/10/19 09:24:34;;;;;;;21.47;16.90;;;12.10;55.10;;;;;;5007984;28;20211;-91
2023/10/19 09:27:03;;;;;;;20.03;16.00;;;12.10;54.50;;;;;;5022261;28;20183;-91
2023/10/19 09:29:28;;;;;;;23.57;17.10;;;12.20;54.60;;;;;;5017028;28;20266;-90
2023/10/19 09:31:57;;;;;;;24.83;16.23;;;12.30;54.40;;;;;;5013251;28;20238;-90
2023/10/19 09:34:31;;;;;;;21.47;15.93;;;12.40;54.60;;;;;;5017534;28;20210;-92
2023/10/19 09:37:00;;;;;;;18.20;15.67;;;12.40;54.20;;;;;;4999770;28;20587;-91
2023/10/19 09:39:35;;;;;;;21.03;15.97;;;12.60;54.20;;;;;;5005806;28;20195;-91
2023/10/19 09:42:10;;;;;;;21.03;15.63;;;12.60;53.40;;;;;;5004393;28;20281;-91
2023/10/19 09:44:48;;;;;;;18.43;14.97;;;12.50;53.80;;;;;;5009784;28;20223;-89
2023/10/19 09:47:37;;;;;;;22.57;16.03;;;12.40;53.20;;;;;;5002194;28;20182;-92
2023/10/19 09:50:06;;;;;;;22.73;15.30;;;12.40;53.00;;;;;;5030593;28;20234;-91
2023/10/19 09:52:33;;;;;;;19.50;14.70;;;12.30;53.40;;;;;;5012376;28;20666;-93
2023/10/19 09:55:32;;;;;;;19.07;13.63;;;12.40;53.60;;;;;;4997472;28;20175;-90
2023/10/19 09:58:14;;;;;;;20.23;13.67;;;12.50;52.80;;;;;;5000701;28;20176;-91
2023/10/19 10:00:51;;;;;;;20.90;13.93;;;12.50;53.20;;;;;;5005519;28;20191;-91
2023/10/19 10:03:42;;;;;;;16.83;12.23;;;12.50;53.00;;;;;;5003219;28;20187;-91
2023/10/19 10:06:08;;;;;;;19.13;12.90;;;12.50;52.50;;;;;;5014753;28;20649;-92
2023/10/19 10:08:37;;;;;;;16.90;13.33;;;12.50;52.60;;;;;;5010792;28;20209;-91
2023/10/19 10:11:23;;;;;;;15.47;12.80;;;12.50;52.30;;;;;;5001525;28;20211;-93
2023/10/19 10:13:50;;;;;;;16.33;12.93;;;12.50;52.50;;;;;;5019748;28;20176;-92
2023/10/19 10:16:23;;;;;;;19.60;12.17;;;12.60;52.40;;;;;;5000803;28;20190;-91
2023/10/19 10:18:50;;;;;;;17.93;12.90;;;12.60;52.60;;;;;;5000433;28;20176;-90
2023/10/19 10:21:21;;;;;;;16.67;12.13;;;12.80;52.60;;;;;;5006768;28;20605;-92
2023/10/19 10:24:00;;;;;;;17.37;12.37;;;12.90;52.40;;;;;;5013853;28;20178;-92
2023/10/19 10:26:29;;;;;;;16.40;11.80;;;13.00;52.30;;;;;;5013160;28;20524;-91
2023/10/19 10:29:22;;;;;;;18.53;12.30;;;13.10;52.10;;;;;;5014066;28;20271;-91
2023/10/19 10:31:49;;;;;;;17.70;12.43;;;13.30;52.30;;;;;;5031192;28;20199;-91
2023/10/19 10:34:33;;;;;;;14.67;12.30;;;13.40;52.00;;;;;;4998308;28;20195;-90
2023/10/19 10:37:05;;;;;;;21.27;12.67;;;13.50;51.90;;;;;;5001668;28;20278;-91
2023/10/19 10:39:31;;;;;;;15.43;12.63;;;13.60;51.60;;;;;;5005169;28;20651;-92
2023/10/19 10:41:58;;;;;;;18.27;13.40;;;13.60;51.20;;;;;;4995284;28;20222;-91
2023/10/19 10:44:41;;;;;;;18.83;12.33;;;13.60;51.10;;;;;;4998523;28;20222;-92
2023/10/19 10:47:11;;;;;;;16.37;12.97;;;13.60;50.90;;;;;;5017354;28;20186;-93
2023/10/19 10:49:59;;;;;;;16.70;12.10;;;13.60;51.00;;;;;;5010171;28;20195;-92
2023/10/19 10:52:26;;;;;;;15.93;11.97;;;13.60;50.80;;;;;;4995146;28;20200;-92
2023/10/19 10:54:52;;;;;;;13.97;11.43;;;13.50;50.80;;;;;;5009862;28;20187;-92
2023/10/19 10:57:20;;;;;;;16.37;12.20;;;13.60;51.00;;;;;;5007427;28;20245;-92
2023/10/19 10:59:45;;;;;;;15.30;11.30;;;13.60;50.60;;;;;;4994863;28;20171;-92
2023/10/19 11:02:21;;;;;;;13.77;11.67;;;13.70;51.00;;;;;;5004466;28;20179;-92
2023/10/19 11:04:47;;;;;;;14.70;12.13;;;13.80;51.00;;;;;;5010779;28;20183;-91
2023/10/19 11:07:20;;;;;;;16.40;11.50;;;13.80;50.90;;;;;;5009368;28;20617;-91
2023/10/19 11:09:48;;;;;;;14.97;11.53;;;13.90;50.50;;;;;;5006185;28;20243;-92
2023/10/19 11:12:15;;;;;;;16.10;11.43;;;13.90;50.30;;;;;;5007782;28;20542;-91
2023/10/19 11:15:00;;;;;;;14.87;10.67;;;13.90;50.60;;;;;;5006004;28;20192;-91
2023/10/19 11:17:30;;;;;;;16.53;11.63;;;13.90;50.10;;;;;;5011667;28;20187;-93
2023/10/19 11:19:56;;;;;;;18.90;11.77;;;13.90;50.40;;;;;;5006737;28;20183;-92
2023/10/19 11:22:26;;;;;;;16.13;11.20;;;14.00;50.20;;;;;;5010783;28;20581;-86
2023/10/19 11:24:53;;;;;;;15.40;10.97;;;13.90;50.00;;;;;;5008001;28;20903;-86
2023/10/19 11:27:28;;;;;;;17.83;11.27;;;13.90;49.70;;;;;;5007175;28;20659;-85
2023/10/19 11:29:57;;;;;;;14.40;10.57;;;13.80;49.90;;;;;;5011641;28;20690;-85
2023/10/19 11:32:25;;;;;;;14.90;10.77;;;13.70;49.40;;;;;;5010255;28;20336;-85
2023/10/19 11:34:54;;;;;;;17.20;11.70;;;13.70;49.90;;;;;;5010950;28;20248;-84
2023/10/19 11:37:20;;;;;;;19.03;11.37;;;13.70;50.20;;;;;;5012166;28;20183;-87
2023/10/19 11:39:46;;;;;;;13.90;10.23;;;13.80;50.00;;;;;;5004800;28;20644;-85
2023/10/19 11:42:12;;;;;;;15.43;11.67;;;13.80;50.10;;;;;;5006287;28;20187;-85
2023/10/19 11:44:39;;;;;;;14.00;11.10;;;13.80;49.80;;;;;;5009394;28;20619;-86
2023/10/19 11:47:05;;;;;;;15.40;11.03;;;13.90;50.00;;;;;;5011169;28;20186;-85
2023/10/19 11:49:30;;;;;;;14.83;11.07;;;13.80;49.60;;;;;;5009187;28;20183;-85
2023/10/19 11:51:57;;;;;;;17.67;10.87;;;13.90;49.80;;;;;;5005715;28;20658;-85
2023/10/19 11:54:23;;;;;;;13.27;10.60;;;13.80;49.80;;;;;;5005869;28;20286;-85
2023/10/19 11:56:49;;;;;;;13.73;10.57;;;13.90;49.90;;;;;;5005633;28;20271;-85
2023/10/19 11:59:15;;;;;;;14.10;10.73;;;13.80;49.90;;;;;;5008844;28;20186;-85
2023/10/19 12:01:40;;;;;;;15.60;11.63;;;13.90;50.00;;;;;;5008852;28;20615;-86
2023/10/19 12:04:06;;;;;;;14.83;10.70;;;14.00;50.00;;;;;;5006263;28;20190;-85
2023/10/19 12:06:32;;;;;;;16.20;10.80;;;14.00;49.80;;;;;;5006056;28;20186;-85
2023/10/19 12:09:02;;;;;;;13.30;10.33;;;14.00;49.70;;;;;;5009895;28;20234;-85
2023/10/19 12:11:28;;;;;;;13.67;10.20;;;13.90;49.20;;;;;;5008939;28;20202;-85
2023/10/19 12:13:54;;;;;;;13.47;9.80;;;13.80;49.30;;;;;;5009652;28;20624;-86
2023/10/19 12:16:21;;;;;;;15.57;10.63;;;13.80;49.50;;;;;;5008007;28;20186;-85
2023/10/19 12:18:48;;;;;;;14.47;11.17;;;13.70;49.80;;;;;;5004317;28;20543;-85
2023/10/19 12:21:14;;;;;;;15.23;11.10;;;13.80;49.70;;;;;;5007763;28;20199;-90
2023/10/19 12:23:41;;;;;;;15.53;11.30;;;13.80;49.50;;;;;;4995668;28;20548;-89
2023/10/19 12:26:14;;;;;;;14.90;10.70;;;13.80;49.70;;;;;;5010324;28;20210;-91
2023/10/19 12:28:41;;;;;;;18.47;11.53;;;13.90;49.90;;;;;;5009919;28;20640;-91
2023/10/19 12:31:08;;;;;;;16.30;10.77;;;13.90;50.20;;;;;;5006636;28;20269;-91
2023/10/19 12:33:35;;;;;;;15.60;12.23;;;13.80;49.60;;;;;;5008912;28;20278;-92
2023/10/19 12:36:01;;;;;;;15.03;12.30;;;13.90;49.80;;;;;;5003450;28;20287;-91
2023/10/19 12:38:27;;;;;;;14.33;10.97;;;14.00;49.80;;;;;;5009361;28;20187;-91
2023/10/19 12:40:54;;;;;;;15.80;10.77;;;13.90;49.50;;;;;;5011059;28;20187;-89
2023/10/19 12:43:22;;;;;;;15.23;11.63;;;14.00;49.60;;;;;;5010703;28;20227;-89
2023/10/19 12:45:55;;;;;;;15.97;12.13;;;13.90;49.40;;;;;;5010204;28;20214;-91
2023/10/19 12:48:21;;;;;;;16.53;12.40;;;13.90;49.40;;;;;;5014554;28;20187;-91
2023/10/19 12:50:47;;;;;;;19.27;12.53;;;13.80;49.60;;;;;;5009203;28;20214;-90
2023/10/19 12:53:13;;;;;;;18.93;12.90;;;13.80;49.50;;;;;;5014379;28;20628;-92